createdAt,value
2023-03-21T00:00:00.337Z,986.5
2023-03-21T00:10:12.349Z,986.4
2023-03-21T00:20:00.288Z,986.3
2023-03-21T00:30:00.279Z,986.3
2023-03-21T00:40:00.491Z,986.1
2023-03-21T00:50:00.285Z,986.0
2023-03-21T01:00:00.307Z,986.0
2023-03-21T01:10:00.272Z,985.8
2023-03-21T01:20:00.365Z,985.9
2023-03-21T01:30:00.267Z,985.8
2023-03-21T01:40:00.345Z,985.8
2023-03-21T01:50:00.292Z,985.7
2023-03-21T02:00:00.301Z,985.7
2023-03-21T02:10:00.268Z,985.8
2023-03-21T02:20:00.297Z,985.8
2023-03-21T02:30:00.296Z,985.8
2023-03-21T02:40:00.321Z,985.8
2023-03-21T02:50:00.284Z,985.9
2023-03-21T03:00:07.470Z,985.8
2023-03-21T03:10:00.281Z,985.8
2023-03-21T03:20:07.257Z,985.8
2023-03-21T03:30:00.285Z,985.7
2023-03-21T03:40:00.312Z,985.8
2023-03-21T03:50:00.288Z,985.7
2023-03-21T04:00:00.327Z,985.7
2023-03-21T04:10:00.320Z,985.7
2023-03-21T04:20:11.011Z,985.7
2023-03-21T04:30:00.320Z,985.7
2023-03-21T04:40:00.282Z,985.8
2023-03-21T04:50:00.291Z,985.8
2023-03-21T05:00:00.327Z,985.8
2023-03-21T05:10:02.352Z,985.9
2023-03-21T05:20:00.310Z,986.0
2023-03-21T05:30:00.297Z,986.0
2023-03-21T05:40:00.321Z,986.1
2023-03-21T05:50:00.336Z,986.1
2023-03-21T06:00:00.422Z,986.1
2023-03-21T06:10:00.293Z,986.2
2023-03-21T06:20:00.309Z,986.2
2023-03-21T06:30:00.300Z,986.2
2023-03-21T06:40:00.339Z,986.2
2023-03-21T06:50:00.324Z,986.3
2023-03-21T07:00:00.377Z,986.4
2023-03-21T07:10:00.336Z,986.4
2023-03-21T07:20:00.305Z,986.5
2023-03-21T07:30:00.595Z,986.5
2023-03-21T07:40:00.353Z,986.6
2023-03-21T07:50:00.376Z,986.5
2023-03-21T08:00:00.421Z,986.6
2023-03-21T08:10:00.409Z,986.6
2023-03-21T08:20:00.404Z,986.6
2023-03-21T08:30:00.301Z,986.7
2023-03-21T08:40:00.431Z,986.5
2023-03-21T08:50:00.358Z,986.6
2023-03-21T09:00:00.343Z,986.7
2023-03-21T09:10:19.107Z,986.7
2023-03-21T09:20:00.288Z,986.7
2023-03-21T09:30:00.273Z,986.6
2023-03-21T09:40:00.281Z,986.5
2023-03-21T09:50:13.181Z,986.5
2023-03-21T10:00:00.298Z,986.5
2023-03-21T10:10:00.288Z,986.5
2023-03-21T10:20:00.313Z,986.4
2023-03-21T10:30:00.286Z,986.5
2023-03-21T10:40:00.287Z,986.4
2023-03-21T10:50:09.254Z,986.5
2023-03-21T11:00:00.325Z,986.3
2023-03-21T11:10:00.283Z,986.3
2023-03-21T11:20:00.319Z,986.2
2023-03-21T11:30:00.328Z,986.1
2023-03-21T11:40:00.322Z,985.9
2023-03-21T11:50:04.889Z,985.7
2023-03-21T12:00:00.325Z,985.7
2023-03-21T12:10:00.319Z,985.6
2023-03-21T12:20:00.299Z,985.5
2023-03-21T12:30:00.282Z,985.4
2023-03-21T12:40:00.329Z,985.3
2023-03-21T12:50:00.276Z,985.2
2023-03-21T13:00:00.286Z,985.1
2023-03-21T13:10:00.282Z,985.1
2023-03-21T13:20:00.277Z,985.0
2023-03-21T13:30:00.427Z,984.8
2023-03-21T13:40:00.285Z,984.8
2023-03-21T13:50:00.297Z,984.8
2023-03-21T14:00:00.320Z,984.8
2023-03-21T14:10:00.292Z,984.5
2023-03-21T14:20:00.284Z,984.4
2023-03-21T14:30:00.314Z,984.3
2023-03-21T14:40:00.708Z,984.3
2023-03-21T14:50:00.291Z,984.3
2023-03-21T15:00:00.316Z,984.3
2023-03-21T15:10:00.296Z,984.3
2023-03-21T15:20:00.295Z,984.1
2023-03-21T15:30:00.305Z,984.1
2023-03-21T15:40:00.280Z,984.1
2023-03-21T15:50:00.293Z,984.0
2023-03-21T16:00:00.315Z,984.0
2023-03-21T16:10:00.291Z,983.9
2023-03-21T16:20:00.321Z,983.9
2023-03-21T16:30:00.331Z,984.0
2023-03-21T16:40:00.340Z,984.0
2023-03-21T16:50:00.332Z,984.2
2023-03-21T17:00:00.440Z,984.3
2023-03-21T17:10:00.293Z,984.4
2023-03-21T17:20:00.311Z,984.5
2023-03-21T17:30:00.538Z,984.6
2023-03-21T17:40:00.318Z,984.6
2023-03-21T17:50:00.287Z,984.7
2023-03-21T18:00:00.314Z,984.7
2023-03-21T18:10:00.330Z,984.8
2023-03-21T18:20:00.319Z,984.8
2023-03-21T18:30:37.327Z,984.9
2023-03-21T18:40:00.352Z,985.0
2023-03-21T18:50:15.271Z,985.0
2023-03-21T19:00:00.334Z,985.0
2023-03-21T19:10:16.531Z,985.1
2023-03-21T19:20:00.309Z,985.1
2023-03-21T19:30:13.576Z,985.1
2023-03-21T19:40:00.312Z,985.1
2023-03-21T20:00:00.292Z,985.3
2023-03-21T20:10:00.335Z,985.3
2023-03-21T20:20:00.292Z,985.4
2023-03-21T20:30:09.061Z,985.4
2023-03-21T20:40:00.287Z,985.4
2023-03-21T20:50:00.336Z,985.3
2023-03-21T21:00:00.337Z,985.4
2023-03-21T21:10:00.285Z,985.5
2023-03-21T21:20:00.285Z,985.5
2023-03-21T21:30:00.319Z,985.6
2023-03-21T21:40:00.287Z,985.6
2023-03-21T21:50:00.281Z,985.6
2023-03-21T22:00:00.319Z,985.7
2023-03-21T22:10:00.273Z,985.8
2023-03-21T22:20:05.975Z,985.8
2023-03-21T22:30:00.306Z,985.9
2023-03-21T22:40:00.310Z,986.0
2023-03-21T22:50:00.310Z,985.9
2023-03-21T23:00:00.310Z,985.7
2023-03-21T23:10:00.339Z,985.8
2023-03-21T23:20:00.285Z,985.9
2023-03-21T23:30:00.283Z,986.1
2023-03-21T23:40:00.297Z,986.0
2023-03-21T23:50:00.277Z,986.0
